Time;durP1;ratioP1;P1;durP2;ratioP2;P2;SDS_P1;SDS_P2;PMS_P1;PMS_P2;Temp;Humidity;BMP_temperature;BMP_pressure;BME280_temperature;BME280_humidity;BME280_pressure;Samples;Min_cycle;Max_cycle;Signal;HPM_P1;HPM_P2
2022/09/03 00:01:40;;;;;;;1.38;0.93;;;19.40;45.30;;;;;;6243313;23;20087;-65
2022/09/03 00:04:23;;;;;;;1.85;1.20;;;19.30;45.40;;;;;;6245607;23;20000;-65
2022/09/03 00:06:56;;;;;;;3.78;1.50;;;19.30;45.60;;;;;;6245555;23;20595;-65
2022/09/03 00:09:27;;;;;;;1.33;1.00;;;19.30;45.80;;;;;;6243747;23;20000;-66
2022/09/03 00:12:10;;;;;;;2.30;1.08;;;19.20;45.90;;;;;;6244843;23;20757;-65
2022/09/03 00:14:52;;;;;;;2.40;1.10;;;19.20;45.80;;;;;;6243306;23;20476;-67
2022/09/03 00:17:29;;;;;;;1.75;1.23;;;19.10;45.90;;;;;;6242445;23;20020;-66
2022/09/03 00:20:07;;;;;;;1.42;1.00;;;19.10;46.10;;;;;;6242062;23;20067;-67
2022/09/03 00:22:39;;;;;;;2.28;1.20;;;19.10;46.10;;;;;;6242546;23;19996;-67
2022/09/03 00:25:11;;;;;;;1.73;1.05;;;19.00;46.20;;;;;;6242442;23;20050;-67
2022/09/03 00:27:39;;;;;;;1.95;1.15;;;19.10;46.10;;;;;;6242650;23;20016;-67
2022/09/03 00:30:12;;;;;;;2.05;1.08;;;19.00;46.20;;;;;;6243213;23;20211;-66
2022/09/03 00:33:05;;;;;;;3.10;1.30;;;19.00;46.30;;;;;;6243217;23;20004;-66
2022/09/03 00:35:43;;;;;;;2.45;1.10;;;19.00;46.30;;;;;;6242118;23;20004;-65
2022/09/03 00:38:09;;;;;;;2.17;1.05;;;19.00;46.40;;;;;;6242638;23;20417;-66
2022/09/03 00:40:48;;;;;;;1.45;1.05;;;18.90;46.50;;;;;;6240395;23;20023;-66
2022/09/03 00:43:48;;;;;;;2.45;1.38;;;18.90;46.50;;;;;;6241447;23;20009;-66
2022/09/03 00:46:33;;;;;;;1.17;1.10;;;18.90;46.80;;;;;;6241875;23;20000;-66
2022/09/03 00:49:17;;;;;;;4.65;1.27;;;18.80;46.70;;;;;;6241764;23;20000;-66
2022/09/03 00:52:02;;;;;;;1.92;1.10;;;18.80;46.80;;;;;;6242200;23;20003;-66
2022/09/03 00:55:06;;;;;;;1.02;0.93;;;18.80;47.00;;;;;;6240807;23;20008;-66
2022/09/03 00:57:38;;;;;;;1.20;1.10;;;18.80;46.80;;;;;;6242968;23;20015;-66
2022/09/03 01:00:13;;;;;;;2.15;1.30;;;18.80;47.00;;;;;;6243732;23;19996;-66
2022/09/03 01:02:40;;;;;;;2.05;1.40;;;18.70;46.90;;;;;;6243700;23;20075;-66
2022/09/03 01:05:25;;;;;;;1.88;1.20;;;18.70;47.20;;;;;;6243027;23;20004;-66
2022/09/03 01:08:24;;;;;;;5.97;1.50;;;18.70;47.20;;;;;;6242536;23;20027;-66
2022/09/03 01:11:11;;;;;;;1.45;1.08;;;18.70;47.20;;;;;;6242249;23;20007;-66
2022/09/03 01:13:45;;;;;;;1.60;1.30;;;18.70;47.30;;;;;;6242609;23;20011;-67
2022/09/03 01:16:30;;;;;;;1.45;1.05;;;18.60;47.50;;;;;;6243164;23;20070;-66
2022/09/03 01:19:15;;;;;;;2.30;1.10;;;18.60;47.60;;;;;;6243396;23;20000;-66
2022/09/03 01:22:14;;;;;;;2.58;1.00;;;18.60;47.70;;;;;;6243447;23;20000;-66
2022/09/03 01:24:58;;;;;;;2.70;1.30;;;18.50;47.70;;;;;;6243043;23;20039;-66
2022/09/03 01:28:00;;;;;;;2.65;1.25;;;18.50;47.90;;;;;;6245927;23;20038;-66
2022/09/03 01:30:29;;;;;;;2.83;1.45;;;18.50;47.90;;;;;;6246006;23;20000;-66
2022/09/03 01:33:15;;;;;;;1.23;1.10;;;18.40;48.00;;;;;;6244945;23;20011;-66
2022/09/03 01:36:22;;;;;;;2.45;1.27;;;18.40;48.10;;;;;;6243572;23;20004;-67
2022/09/03 01:39:06;;;;;;;1.70;1.20;;;18.40;48.10;;;;;;6242580;23;20018;-67
2022/09/03 01:42:15;;;;;;;2.78;1.10;;;18.30;48.10;;;;;;6242913;23;20456;-67
2022/09/03 01:44:57;;;;;;;1.55;1.13;;;18.30;48.10;;;;;;6243068;23;20011;-67
2022/09/03 01:47:32;;;;;;;1.30;1.17;;;18.30;48.30;;;;;;6242639;23;20004;-66
2022/09/03 01:50:00;;;;;;;2.20;1.23;;;18.20;48.40;;;;;;6242919;23;20008;-67
2022/09/03 01:52:45;;;;;;;1.63;1.10;;;18.20;48.60;;;;;;6242597;23;20079;-67
2022/09/03 01:55:25;;;;;;;2.78;1.70;;;18.10;48.50;;;;;;6242852;23;20490;-67
2022/09/03 01:58:10;;;;;;;4.25;1.70;;;18.10;48.60;;;;;;6243394;23;20007;-67
2022/09/03 02:00:39;;;;;;;2.28;1.30;;;18.10;48.60;;;;;;6243143;23;20014;-67
2022/09/03 02:03:06;;;;;;;4.07;1.52;;;18.10;48.70;;;;;;6242498;23;20075;-67
2022/09/03 02:05:33;;;;;;;1.20;1.10;;;18.10;48.90;;;;;;6242177;23;20004;-67
2022/09/03 02:08:03;;;;;;;1.67;1.20;;;18.00;48.90;;;;;;6241988;23;20005;-67
2022/09/03 02:10:43;;;;;;;1.98;1.05;;;18.00;48.90;;;;;;6241741;23;20026;-68
2022/09/03 02:13:11;;;;;;;2.03;1.35;;;18.00;48.90;;;;;;6242867;23;20325;-67
2022/09/03 02:15:41;;;;;;;2.75;1.10;;;18.00;49.20;;;;;;6241512;23;20079;-67
2022/09/03 02:18:15;;;;;;;2.05;1.30;;;17.90;49.20;;;;;;6239128;23;20096;-68
2022/09/03 02:20:41;;;;;;;1.85;1.30;;;17.90;49.40;;;;;;6241877;23;20007;-68
2022/09/03 02:23:07;;;;;;;1.45;1.10;;;17.90;49.40;;;;;;6243558;23;20075;-67
2022/09/03 02:25:37;;;;;;;1.40;1.15;;;17.80;49.50;;;;;;6244125;23;20032;-67
2022/09/03 02:28:06;;;;;;;2.13;1.20;;;17.80;49.60;;;;;;6243064;23;20052;-67
2022/09/03 02:30:31;;;;;;;1.73;1.20;;;17.80;49.60;;;;;;6242784;23;20054;-67
2022/09/03 02:32:58;;;;;;;1.70;1.13;;;17.70;49.60;;;;;;6243964;23;20495;-67
2022/09/03 02:35:23;;;;;;;1.65;1.20;;;17.70;49.80;;;;;;6243500;23;20449;-67
2022/09/03 02:37:49;;;;;;;1.70;1.10;;;17.70;49.90;;;;;;6243924;23;20003;-66
2022/09/03 02:40:16;;;;;;;1.42;1.30;;;17.60;50.00;;;;;;6243626;23;20006;-66
2022/09/03 02:42:42;;;;;;;1.75;1.30;;;17.60;50.00;;;;;;6243954;23;20520;-66
2022/09/03 02:45:16;;;;;;;1.77;1.10;;;17.60;50.10;;;;;;6244122;23;20541;-66
2022/09/03 02:47:45;;;;;;;2.03;1.10;;;17.60;50.00;;;;;;6243103;23;20058;-66
2022/09/03 02:50:11;;;;;;;2.53;1.20;;;17.60;50.10;;;;;;6242743;23;20467;-67
2022/09/03 02:52:36;;;;;;;1.85;1.25;;;17.60;50.20;;;;;;6244431;23;20008;-67
2022/09/03 02:55:02;;;;;;;3.15;1.30;;;17.50;50.30;;;;;;6243489;23;20421;-67
2022/09/03 02:57:28;;;;;;;1.95;1.30;;;17.50;50.30;;;;;;6243154;23;20331;-67
2022/09/03 02:59:54;;;;;;;1.38;1.20;;;17.50;50.30;;;;;;6242700;23;20026;-66
2022/09/03 03:02:19;;;;;;;1.75;1.33;;;17.50;50.30;;;;;;6243227;23;20024;-67
2022/09/03 03:04:45;;;;;;;1.95;1.23;;;17.40;50.40;;;;;;6242776;23;20433;-66
2022/09/03 03:07:10;;;;;;;2.25;1.27;;;17.40;50.50;;;;;;6243231;23;20084;-67
2022/09/03 03:09:36;;;;;;;2.05;1.30;;;17.40;50.50;;;;;;6243084;23;20007;-67
2022/09/03 03:12:01;;;;;;;1.92;1.10;;;17.40;50.60;;;;;;6242622;23;20004;-67
2022/09/03 03:14:27;;;;;;;1.30;1.20;;;17.40;50.70;;;;;;6242713;23;20014;-67
2022/09/03 03:16:53;;;;;;;2.25;1.27;;;17.30;50.70;;;;;;6242971;23;20087;-68
2022/09/03 03:19:18;;;;;;;1.30;1.00;;;17.30;50.70;;;;;;6243563;23;20008;-68
2022/09/03 03:21:44;;;;;;;2.38;1.35;;;17.30;50.60;;;;;;6243717;23;20004;-66
2022/09/03 03:24:09;;;;;;;2.22;1.63;;;17.30;50.80;;;;;;6242876;23;20058;-66
2022/09/03 03:26:35;;;;;;;4.03;2.40;;;17.30;50.90;;;;;;6243632;23;20011;-66
2022/09/03 03:29:05;;;;;;;2.65;1.45;;;17.30;50.90;;;;;;6242750;23;20007;-66
2022/09/03 03:31:31;;;;;;;2.40;1.35;;;17.30;50.90;;;;;;6242986;23;20403;-66
2022/09/03 03:33:59;;;;;;;1.40;1.10;;;17.30;51.00;;;;;;6242891;23;20095;-66
2022/09/03 03:36:27;;;;;;;2.90;1.25;;;17.20;51.00;;;;;;6243202;22;20001;-65
2022/09/03 03:38:54;;;;;;;2.55;1.30;;;17.20;51.00;;;;;;6242986;23;20079;-67
2022/09/03 03:41:22;;;;;;;4.50;1.50;;;17.20;51.10;;;;;;6243074;23;20054;-68
2022/09/03 03:43:56;;;;;;;4.30;1.27;;;17.20;51.10;;;;;;6243259;23;20000;-67
2022/09/03 03:46:23;;;;;;;1.55;1.20;;;17.20;51.20;;;;;;6242782;23;20000;-67
2022/09/03 03:48:49;;;;;;;1.30;1.20;;;17.20;51.20;;;;;;6243538;22;20004;-67
2022/09/03 03:51:16;;;;;;;2.05;1.17;;;17.20;51.20;;;;;;6243303;22;20083;-68
2022/09/03 03:53:42;;;;;;;4.18;1.40;;;17.20;51.40;;;;;;6243392;23;20010;-67
2022/09/03 03:56:12;;;;;;;1.52;1.30;;;17.10;51.30;;;;;;6243388;23;20637;-68
2022/09/03 03:58:41;;;;;;;2.35;1.48;;;17.10;51.40;;;;;;6243803;23;20004;-67
2022/09/03 04:01:10;;;;;;;2.20;1.42;;;17.10;51.50;;;;;;6243556;23;20447;-67
2022/09/03 04:03:36;;;;;;;1.23;1.05;;;17.10;51.60;;;;;;6243242;23;20069;-68
2022/09/03 04:06:03;;;;;;;1.85;1.30;;;17.00;51.50;;;;;;6243373;23;20000;-68
2022/09/03 04:08:30;;;;;;;1.70;1.20;;;17.00;51.60;;;;;;6243380;23;20342;-67
2022/09/03 04:11:00;;;;;;;1.83;1.30;;;17.00;51.70;;;;;;6243565;23;20074;-67
2022/09/03 04:13:33;;;;;;;2.13;1.17;;;17.00;51.80;;;;;;6243237;23;20003;-67
2022/09/03 04:16:04;;;;;;;2.15;1.20;;;17.00;51.80;;;;;;6243632;23;20016;-67
2022/09/03 04:18:30;;;;;;;1.65;1.30;;;16.90;51.80;;;;;;6243154;23;20000;-67
2022/09/03 04:21:05;;;;;;;1.27;1.00;;;16.90;51.80;;;;;;6243481;23;20004;-67
2022/09/03 04:23:35;;;;;;;2.60;1.20;;;16.90;51.80;;;;;;6243188;23;20000;-68
2022/09/03 04:26:01;;;;;;;1.67;1.10;;;16.90;51.80;;;;;;6244171;23;20436;-67
2022/09/03 04:28:27;;;;;;;1.60;1.20;;;16.90;52.00;;;;;;6243423;23;20012;-66
2022/09/03 04:30:53;;;;;;;3.72;1.30;;;16.80;52.00;;;;;;6243471;23;20004;-67
2022/09/03 04:33:19;;;;;;;1.88;1.20;;;16.80;52.00;;;;;;6243646;23;20064;-67
2022/09/03 04:35:45;;;;;;;2.33;1.20;;;16.80;52.00;;;;;;6243794;23;19996;-67
2022/09/03 04:38:10;;;;;;;1.35;1.20;;;16.80;52.00;;;;;;6243094;23;20067;-67
2022/09/03 04:40:36;;;;;;;1.88;1.10;;;16.80;52.10;;;;;;6243192;23;20003;-67
2022/09/03 04:43:02;;;;;;;2.05;1.15;;;16.70;52.10;;;;;;6242869;23;19996;-67
2022/09/03 04:45:28;;;;;;;1.30;1.20;;;16.70;52.10;;;;;;6243903;23;20049;-67
2022/09/03 04:47:59;;;;;;;2.08;1.30;;;16.70;52.20;;;;;;6242880;23;20082;-66
2022/09/03 04:50:26;;;;;;;1.23;1.08;;;16.70;52.30;;;;;;6245405;23;20015;-66
2022/09/03 04:52:55;;;;;;;1.10;1.00;;;16.70;52.30;;;;;;6244968;23;20011;-66
2022/09/03 04:55:21;;;;;;;3.33;1.00;;;16.70;52.30;;;;;;6244289;23;20000;-66
2022/09/03 04:57:46;;;;;;;1.70;0.98;;;16.70;52.30;;;;;;6244527;23;20054;-64
2022/09/03 05:00:12;;;;;;;1.42;1.00;;;16.60;52.40;;;;;;6244725;23;20008;-66
2022/09/03 05:02:37;;;;;;;1.55;1.17;;;16.60;52.30;;;;;;6245298;23;19996;-66
2022/09/03 05:05:03;;;;;;;4.35;1.50;;;16.60;52.60;;;;;;6244500;23;20015;-67
2022/09/03 05:07:37;;;;;;;1.45;1.00;;;16.60;52.70;;;;;;6246043;23;20013;-66
2022/09/03 05:10:07;;;;;;;2.70;1.20;;;16.50;52.60;;;;;;6243897;23;20004;-67
2022/09/03 05:12:33;;;;;;;2.00;1.30;;;16.50;52.80;;;;;;6242750;23;20000;-66
2022/09/03 05:14:59;;;;;;;3.67;1.20;;;16.50;52.90;;;;;;6242305;23;20087;-66
2022/09/03 05:17:26;;;;;;;3.42;1.40;;;16.50;53.00;;;;;;6242890;23;20492;-66
2022/09/03 05:19:52;;;;;;;2.05;1.10;;;16.50;53.00;;;;;;6239942;23;20023;-66
2022/09/03 05:22:20;;;;;;;2.35;1.35;;;16.50;52.90;;;;;;6241062;23;20314;-66
2022/09/03 05:24:47;;;;;;;1.60;1.25;;;16.50;52.90;;;;;;6241270;23;20010;-66
2022/09/03 05:27:16;;;;;;;1.77;1.20;;;16.50;52.90;;;;;;6241548;23;20018;-66
2022/09/03 05:29:44;;;;;;;3.83;1.23;;;16.90;52.70;;;;;;6242404;23;20011;-67
2022/09/03 05:32:16;;;;;;;1.20;1.10;;;17.50;51.40;;;;;;6240382;23;20004;-67
2022/09/03 05:34:42;;;;;;;1.30;1.03;;;18.10;50.10;;;;;;6242172;23;19996;-67
2022/09/03 05:37:08;;;;;;;1.20;1.10;;;18.60;48.80;;;;;;6242553;23;20288;-66
2022/09/03 05:39:33;;;;;;;2.50;1.10;;;18.40;48.20;;;;;;6240127;23;20000;-67
2022/09/03 05:41:59;;;;;;;1.27;1.10;;;18.10;48.80;;;;;;6239613;23;20102;-67
2022/09/03 05:44:24;;;;;;;1.33;1.10;;;17.80;49.40;;;;;;6238761;23;20000;-66
2022/09/03 05:46:50;;;;;;;3.95;1.23;;;17.60;50.00;;;;;;6240681;23;20000;-66
2022/09/03 05:49:16;;;;;;;1.33;1.17;;;17.30;50.50;;;;;;6239527;23;20004;-66
2022/09/03 05:51:42;;;;;;;1.30;1.20;;;17.20;50.90;;;;;;6238707;23;20007;-66
2022/09/03 05:54:08;;;;;;;1.85;1.33;;;17.20;51.20;;;;;;6239683;23;20004;-67
2022/09/03 05:56:35;;;;;;;1.73;1.17;;;17.10;51.30;;;;;;6239749;23;20027;-67
2022/09/03 05:59:07;;;;;;;1.17;1.08;;;17.10;51.40;;;;;;6240781;23;20429;-66
2022/09/03 06:01:34;;;;;;;;;;;17.50;51.20;;;;;;6240058;23;20011;-67
2022/09/03 06:04:08;;;;;;;2.72;1.20;;;18.70;49.80;;;;;;6239789;22;19899;-67
2022/09/03 06:06:36;;;;;;;1.48;1.05;;;19.70;47.20;;;;;;6240648;23;20079;-67
2022/09/03 06:09:07;;;;;;;3.10;1.20;;;20.60;45.40;;;;;;6240966;23;20007;-67
2022/09/03 06:11:34;;;;;;;1.42;1.00;;;21.30;43.50;;;;;;6241976;23;20011;-67
2022/09/03 06:14:04;;;;;;;1.10;1.00;;;21.80;42.40;;;;;;6241473;23;20334;-67
2022/09/03 06:16:31;;;;;;;1.58;1.20;;;22.00;41.70;;;;;;6242714;23;20033;-67
2022/09/03 06:18:56;;;;;;;1.30;1.00;;;22.20;41.10;;;;;;6242049;23;20046;-67
2022/09/03 06:21:22;;;;;;;1.40;1.10;;;22.50;40.70;;;;;;6242256;23;20000;-68
2022/09/03 06:23:50;;;;;;;1.20;1.00;;;22.90;40.20;;;;;;6241479;23;20084;-67
2022/09/03 06:26:17;;;;;;;1.52;1.10;;;23.30;39.70;;;;;;6241536;23;20050;-67
2022/09/03 06:28:43;;;;;;;2.70;1.15;;;23.70;38.90;;;;;;6240283;22;20081;-67
2022/09/03 06:31:11;;;;;;;1.20;0.90;;;23.80;38.30;;;;;;6237515;23;20667;-67
2022/09/03 06:33:38;;;;;;;1.60;0.85;;;24.00;38.10;;;;;;6237760;23;20078;-67
2022/09/03 06:36:07;;;;;;;2.13;0.90;;;24.40;37.50;;;;;;6239803;23;20337;-67
2022/09/03 06:38:34;;;;;;;2.95;1.10;;;24.60;37.20;;;;;;6238515;23;20047;-67
2022/09/03 06:41:02;;;;;;;2.20;1.10;;;25.00;36.60;;;;;;6239129;23;19996;-65
2022/09/03 06:43:30;;;;;;;1.10;0.80;;;24.80;36.20;;;;;;6239271;23;20004;-67
2022/09/03 06:46:04;;;;;;;1.10;1.00;;;24.70;36.40;;;;;;6241349;23;20038;-66
2022/09/03 06:48:32;;;;;;;4.47;2.35;;;24.60;36.50;;;;;;6239449;23;19996;-66
2022/09/03 06:51:03;;;;;;;1.90;1.17;;;25.00;36.10;;;;;;6240769;23;20000;-66
2022/09/03 06:53:32;;;;;;;1.67;0.90;;;24.90;35.90;;;;;;6240693;23;20385;-67
2022/09/03 06:56:06;;;;;;;1.40;1.00;;;25.50;36.10;;;;;;6239100;23;20028;-67
2022/09/03 06:58:44;;;;;;;2.80;1.00;;;25.80;35.50;;;;;;6240177;23;20083;-66
2022/09/03 07:01:15;;;;;;;1.60;1.15;;;26.20;34.90;;;;;;6240957;23;20007;-66
2022/09/03 07:03:42;;;;;;;1.30;1.00;;;26.20;34.20;;;;;;6240844;23;20004;-66
2022/09/03 07:06:11;;;;;;;1.35;1.00;;;25.80;34.50;;;;;;6241001;23;20006;-65
2022/09/03 07:08:37;;;;;;;1.55;1.08;;;25.90;34.90;;;;;;6242648;23;20000;-66
2022/09/03 07:11:08;;;;;;;1.25;0.93;;;26.00;34.90;;;;;;6242895;23;20412;-65
2022/09/03 07:13:34;;;;;;;1.83;0.90;;;26.40;34.70;;;;;;6243144;23;20059;-65
2022/09/03 07:16:05;;;;;;;1.20;1.00;;;26.60;34.40;;;;;;6242942;23;20000;-65
2022/09/03 07:18:32;;;;;;;1.88;0.90;;;26.80;33.70;;;;;;6243296;23;20086;-66
2022/09/03 07:20:59;;;;;;;2.15;0.90;;;27.00;33.90;;;;;;6243215;23;20099;-66
2022/09/03 07:23:25;;;;;;;2.58;0.90;;;27.30;33.70;;;;;;6243653;23;20448;-65
2022/09/03 07:26:05;;;;;;;2.20;0.90;;;27.60;33.30;;;;;;6243238;23;20000;-65
2022/09/03 07:28:31;;;;;;;3.55;1.30;;;28.00;33.10;;;;;;6242754;23;20015;-66
2022/09/03 07:31:24;;;;;;;1.58;1.08;;;27.90;32.50;;;;;;6243028;23;20069;-66
2022/09/03 07:33:57;;;;;;;1.45;0.93;;;27.90;32.80;;;;;;6243170;23;20004;-66
2022/09/03 07:36:25;;;;;;;2.45;0.93;;;28.10;32.60;;;;;;6243352;23;20087;-66
2022/09/03 07:38:53;;;;;;;1.00;0.90;;;28.50;32.40;;;;;;6243282;23;20263;-66
2022/09/03 07:41:20;;;;;;;1.60;0.95;;;28.70;32.40;;;;;;6243971;23;20000;-66
2022/09/03 07:43:46;;;;;;;1.75;0.90;;;28.90;31.90;;;;;;6243559;23;20000;-66
2022/09/03 07:46:15;;;;;;;4.85;1.23;;;28.80;31.90;;;;;;6242765;23;20008;-66
2022/09/03 07:48:42;;;;;;;1.95;0.80;;;29.10;31.70;;;;;;6243455;23;20011;-66
2022/09/03 07:51:08;;;;;;;1.00;0.90;;;29.30;31.90;;;;;;6243408;23;20028;-66
2022/09/03 07:53:35;;;;;;;3.78;1.00;;;29.10;31.70;;;;;;6242556;23;20004;-66
2022/09/03 07:56:05;;;;;;;0.95;0.70;;;29.00;31.70;;;;;;6243247;23;20005;-66
2022/09/03 07:58:32;;;;;;;5.40;1.10;;;29.50;31.90;;;;;;6241672;23;20627;-66
2022/09/03 08:01:02;;;;;;;2.15;0.88;;;29.30;31.30;;;;;;6242283;23;20083;-66
2022/09/03 08:03:27;;;;;;;1.85;1.00;;;29.40;31.60;;;;;;6242801;23;20085;-66
2022/09/03 08:05:53;;;;;;;1.27;0.70;;;29.50;31.50;;;;;;6242066;23;20368;-67
2022/09/03 08:08:19;;;;;;;1.67;1.02;;;29.70;31.30;;;;;;6242381;23;20023;-66
2022/09/03 08:10:44;;;;;;;2.10;0.90;;;29.80;31.40;;;;;;6242059;23;20003;-66
2022/09/03 08:13:10;;;;;;;1.05;0.90;;;29.90;31.20;;;;;;6241974;23;19996;-66
2022/09/03 08:15:37;;;;;;;2.17;1.15;;;30.30;30.90;;;;;;6242548;23;20062;-66
2022/09/03 08:18:02;;;;;;;1.60;0.90;;;29.90;30.60;;;;;;6242479;23;20028;-66
2022/09/03 08:20:28;;;;;;;2.30;1.05;;;29.50;30.80;;;;;;6242209;23;19997;-66
2022/09/03 08:23:01;;;;;;;1.55;1.00;;;29.10;31.30;;;;;;6243058;23;20015;-66
2022/09/03 08:25:27;;;;;;;1.10;1.00;;;29.00;31.60;;;;;;6243260;23;20001;-66
2022/09/03 08:27:53;;;;;;;0.93;0.80;;;29.00;31.70;;;;;;6241979;23;20015;-67
2022/09/03 08:30:20;;;;;;;1.63;0.90;;;29.20;31.50;;;;;;6242985;23;20008;-66
2022/09/03 08:32:46;;;;;;;2.28;1.10;;;28.80;31.70;;;;;;6242627;23;20014;-66
2022/09/03 08:35:12;;;;;;;1.10;0.80;;;28.40;32.00;;;;;;6241982;23;20356;-66
2022/09/03 08:37:38;;;;;;;2.70;1.10;;;28.00;32.20;;;;;;6241411;23;20043;-66
2022/09/03 08:40:04;;;;;;;2.17;1.10;;;27.80;32.70;;;;;;6240517;23;19996;-66
2022/09/03 08:42:36;;;;;;;2.33;1.15;;;26.80;33.50;;;;;;6242746;23;20409;-66
2022/09/03 08:45:05;;;;;;;;;;;25.70;35.20;;;;;;6241314;23;20114;-66
2022/09/03 08:47:44;;;;;;;5.07;1.00;;;24.90;36.50;;;;;;6242510;22;19906;-66
2022/09/03 08:50:28;;;;;;;3.30;1.08;;;24.40;37.70;;;;;;6240586;23;20050;-66
2022/09/03 08:53:19;;;;;;;1.35;1.00;;;23.90;38.60;;;;;;6242395;23;20054;-66
2022/09/03 08:55:45;;;;;;;3.65;1.00;;;23.70;39.20;;;;;;6241921;23;20004;-66
2022/09/03 08:58:15;;;;;;;1.27;0.98;;;23.50;39.60;;;;;;6242769;23;20254;-66
2022/09/03 09:01:01;;;;;;;3.42;1.27;;;23.50;39.90;;;;;;6241922;23;20000;-65
2022/09/03 09:04:09;;;;;;;1.65;1.02;;;23.50;39.80;;;;;;6240905;23;20066;-66
2022/09/03 09:06:44;;;;;;;2.85;0.90;;;23.40;39.80;;;;;;6147266;23;20014;-66
2022/09/03 09:09:09;;;;;;;3.17;1.02;;;23.40;39.80;;;;;;6149125;23;20006;-66
2022/09/03 09:11:50;;;;;;;2.47;1.10;;;23.40;40.00;;;;;;6195391;23;20099;-66
2022/09/03 09:14:45;;;;;;;2.72;1.15;;;23.40;40.00;;;;;;6242108;23;20071;-66
2022/09/03 09:17:26;;;;;;;1.10;1.00;;;23.50;40.20;;;;;;6242491;23;20000;-66
2022/09/03 09:20:10;;;;;;;1.00;0.90;;;23.60;40.00;;;;;;6241069;23;20014;-66
2022/09/03 09:22:43;;;;;;;1.27;1.13;;;23.70;39.80;;;;;;6242847;23;20000;-66
2022/09/03 09:25:13;;;;;;;2.15;1.00;;;23.70;39.60;;;;;;6241981;23;20437;-66
2022/09/03 09:28:01;;;;;;;2.28;1.10;;;23.80;39.60;;;;;;6241925;23;20019;-66
2022/09/03 09:30:29;;;;;;;2.15;0.80;;;23.80;39.60;;;;;;6241913;22;20081;-66
2022/09/03 09:32:55;;;;;;;1.75;1.10;;;23.90;39.60;;;;;;6242447;23;20011;-66
2022/09/03 09:35:21;;;;;;;1.33;0.80;;;24.10;39.40;;;;;;6241579;23;20008;-66
2022/09/03 09:37:52;;;;;;;1.38;0.90;;;24.10;39.40;;;;;;6242391;23;20000;-66
2022/09/03 09:40:34;;;;;;;2.33;1.00;;;24.20;39.20;;;;;;6242774;22;20008;-66
2022/09/03 09:43:09;;;;;;;4.88;1.20;;;24.20;39.00;;;;;;6242920;23;20006;-66
2022/09/03 09:45:39;;;;;;;1.70;1.10;;;24.30;39.00;;;;;;6243576;23;20004;-67
2022/09/03 09:48:30;;;;;;;1.40;1.00;;;24.20;38.90;;;;;;6243110;23;20000;-66
2022/09/03 09:51:13;;;;;;;1.08;0.68;;;24.20;39.10;;;;;;6242335;23;20054;-66
2022/09/03 09:53:40;;;;;;;3.03;1.27;;;24.40;39.10;;;;;;6242706;23;20378;-67
2022/09/03 09:56:06;;;;;;;1.83;0.70;;;24.40;38.90;;;;;;6241271;23;20027;-66
2022/09/03 09:58:33;;;;;;;2.97;1.10;;;24.50;39.00;;;;;;6241399;23;20023;-66
2022/09/03 10:01:02;;;;;;;1.67;1.05;;;24.60;38.50;;;;;;6242472;23;20004;-66
2022/09/03 10:03:31;;;;;;;2.47;1.15;;;24.60;38.10;;;;;;6242612;23;20000;-66
2022/09/03 10:06:52;;;;;;;4.03;1.30;;;24.60;38.30;;;;;;6242919;23;20004;-67
2022/09/03 10:08:48;;;;;;;1.58;0.95;;;24.70;38.20;;;;;;6242584;23;20011;-66
2022/09/03 10:11:16;;;;;;;2.78;0.90;;;24.70;38.20;;;;;;6242966;23;20004;-66
2022/09/03 10:13:46;;;;;;;3.25;1.10;;;24.70;38.00;;;;;;6242444;23;20087;-66
2022/09/03 10:16:25;;;;;;;1.33;0.95;;;24.70;37.90;;;;;;6242909;22;20043;-66
2022/09/03 10:19:15;;;;;;;3.03;1.17;;;24.70;38.00;;;;;;6241866;23;20050;-67
2022/09/03 10:21:48;;;;;;;1.70;1.00;;;24.80;38.10;;;;;;6242138;23;20332;-67
2022/09/03 10:24:25;;;;;;;2.50;1.10;;;24.80;38.10;;;;;;6252462;23;20624;-67
2022/09/03 10:26:51;;;;;;;0.82;0.82;;;24.90;38.00;;;;;;6244925;23;20014;-66
2022/09/03 10:29:20;;;;;;;1.83;1.10;;;25.10;38.10;;;;;;6240420;23;20014;-66
2022/09/03 10:32:15;;;;;;;1.20;0.90;;;25.10;37.80;;;;;;6244401;23;20004;-67
2022/09/03 10:34:55;;;;;;;2.45;1.00;;;25.10;37.80;;;;;;6241851;23;20000;-66
2022/09/03 10:37:37;;;;;;;3.47;1.00;;;25.10;37.50;;;;;;6242168;23;20004;-66
2022/09/03 10:40:14;;;;;;;1.98;1.00;;;25.20;37.60;;;;;;6242365;23;20027;-66
2022/09/03 10:42:58;;;;;;;1.50;1.20;;;25.10;37.30;;;;;;6244624;23;20000;-66
2022/09/03 10:45:42;;;;;;;2.28;0.80;;;25.20;37.40;;;;;;6244471;23;20384;-66
2022/09/03 10:48:29;;;;;;;3.13;0.90;;;25.40;37.50;;;;;;6244443;23;20026;-66
2022/09/03 10:51:04;;;;;;;1.50;0.98;;;25.60;37.40;;;;;;6245012;23;20007;-66
2022/09/03 10:54:25;;;;;;;2.40;1.00;;;25.70;37.00;;;;;;6242975;23;20058;-67
2022/09/03 10:57:29;;;;;;;1.50;0.90;;;25.60;36.80;;;;;;6150433;23;20017;-66
2022/09/03 11:00:14;;;;;;;1.98;1.00;;;25.70;36.90;;;;;;6150478;23;20001;-66
2022/09/03 11:03:16;;;;;;;1.63;1.00;;;25.70;36.60;;;;;;6230158;23;20008;-67
2022/09/03 11:05:57;;;;;;;0.82;0.80;;;25.80;36.40;;;;;;6244709;23;20004;-66
2022/09/03 11:08:47;;;;;;;1.95;0.90;;;25.90;36.40;;;;;;6246084;23;20004;-67
2022/09/03 11:11:18;;;;;;;3.92;1.10;;;26.00;36.30;;;;;;6254412;23;20001;-66
2022/09/03 11:13:50;;;;;;;2.08;1.05;;;26.00;36.10;;;;;;6244090;23;20080;-66
2022/09/03 11:16:18;;;;;;;;;;;26.00;36.30;;;;;;6244481;23;20413;-66
2022/09/03 11:18:48;;;;;;;1.35;0.90;;;26.10;36.00;;;;;;6243169;22;19982;-66
2022/09/03 11:21:19;;;;;;;2.85;0.95;;;26.00;36.10;;;;;;6243601;23;20007;-66
2022/09/03 11:23:49;;;;;;;2.17;1.10;;;26.10;36.00;;;;;;6243546;23;20016;-66
2022/09/03 11:26:18;;;;;;;2.95;0.93;;;26.20;36.00;;;;;;6243494;23;19997;-66
2022/09/03 11:28:46;;;;;;;1.10;1.00;;;26.30;36.00;;;;;;6242915;23;19996;-66
2022/09/03 11:31:32;;;;;;;2.78;1.10;;;26.40;36.50;;;;;;6243016;23;20001;-66
2022/09/03 11:34:05;;;;;;;1.85;1.00;;;26.40;35.80;;;;;;6243122;23;20004;-66
2022/09/03 11:36:34;;;;;;;1.20;1.10;;;26.50;35.60;;;;;;6242024;23;20437;-66
2022/09/03 11:39:00;;;;;;;1.95;0.88;;;26.40;35.60;;;;;;6242941;23;20035;-66
2022/09/03 11:41:33;;;;;;;1.88;1.00;;;26.40;35.80;;;;;;6243668;22;20298;-66
2022/09/03 11:44:15;;;;;;;2.28;0.98;;;26.40;35.90;;;;;;6243387;23;20011;-66
2022/09/03 11:46:51;;;;;;;3.05;0.90;;;26.60;35.80;;;;;;6246237;23;20011;-66
2022/09/03 11:49:28;;;;;;;2.42;1.20;;;26.70;35.60;;;;;;6245732;23;20201;-66
2022/09/03 11:52:03;;;;;;;2.47;1.20;;;26.80;35.40;;;;;;6244128;23;20030;-67
2022/09/03 11:54:32;;;;;;;4.07;1.00;;;26.80;35.30;;;;;;6242581;23;20001;-67
2022/09/03 11:57:22;;;;;;;1.48;0.90;;;26.90;35.30;;;;;;6243329;23;20032;-67
2022/09/03 11:59:47;;;;;;;2.45;1.20;;;26.90;35.30;;;;;;6239332;23;20015;-66
2022/09/03 12:02:26;;;;;;;1.95;0.80;;;27.00;35.30;;;;;;6242400;23;20027;-67
2022/09/03 12:05:26;;;;;;;2.00;1.00;;;27.20;35.30;;;;;;6240282;23;20333;-67
2022/09/03 12:08:02;;;;;;;4.57;0.90;;;27.30;35.10;;;;;;6149719;23;20009;-66
2022/09/03 12:10:51;;;;;;;1.67;1.10;;;27.40;34.90;;;;;;6228861;23;20036;-67
2022/09/03 12:13:28;;;;;;;1.13;1.00;;;27.50;34.80;;;;;;6229028;23;20012;-66
2022/09/03 12:16:40;;;;;;;2.65;1.00;;;27.60;34.30;;;;;;6242840;23;20008;-66
2022/09/03 12:19:17;;;;;;;1.27;1.00;;;27.50;34.50;;;;;;6243066;23;20071;-67
2022/09/03 12:21:48;;;;;;;2.42;0.95;;;27.40;34.10;;;;;;6240954;23;19996;-66
2022/09/03 12:24:19;;;;;;;2.40;0.90;;;27.30;34.30;;;;;;6244235;23;20082;-67
2022/09/03 12:26:44;;;;;;;3.22;1.00;;;27.40;34.30;;;;;;6243100;23;20031;-67
2022/09/03 12:29:23;;;;;;;1.10;1.00;;;27.50;34.20;;;;;;6242414;23;20680;-66
2022/09/03 12:31:50;;;;;;;1.67;1.00;;;27.50;34.10;;;;;;6242933;23;20004;-67
2022/09/03 12:34:17;;;;;;;4.55;1.30;;;27.40;34.00;;;;;;6243658;23;20032;-66
2022/09/03 12:36:50;;;;;;;3.40;1.38;;;27.40;34.30;;;;;;6242795;23;20421;-66
2022/09/03 12:39:24;;;;;;;3.72;0.85;;;27.40;34.30;;;;;;6243172;23;20460;-67
2022/09/03 12:42:02;;;;;;;2.55;1.20;;;27.50;34.60;;;;;;6241775;23;20417;-66
2022/09/03 12:44:34;;;;;;;1.15;0.90;;;27.70;35.20;;;;;;6243720;23;20011;-67
2022/09/03 12:47:02;;;;;;;;;;;28.00;34.30;;;;;;6244442;23;20004;-66
2022/09/03 12:49:59;;;;;;;1.63;1.30;;;28.10;34.10;;;;;;6243618;22;19903;-66
2022/09/03 12:52:34;;;;;;;2.40;0.90;;;28.30;34.10;;;;;;6239166;23;20456;-66
2022/09/03 12:55:05;;;;;;;1.45;1.00;;;28.30;33.90;;;;;;6243505;23;20008;-67
2022/09/03 12:57:34;;;;;;;;;;;28.40;33.60;;;;;;6243887;23;20419;-67
2022/09/03 13:00:04;;;;;;;1.67;1.02;;;28.40;33.70;;;;;;6243379;22;19904;-67
2022/09/03 13:02:54;;;;;;;1.52;1.10;;;28.40;33.60;;;;;;6243817;23;20071;-66
2022/09/03 13:05:26;;;;;;;3.38;1.25;;;28.50;33.60;;;;;;6243222;23;20425;-67
2022/09/03 13:07:56;;;;;;;1.45;1.02;;;28.40;34.10;;;;;;6243850;23;20372;-66
2022/09/03 13:10:26;;;;;;;2.90;1.10;;;28.40;33.90;;;;;;6243710;23;20004;-66
2022/09/03 13:13:02;;;;;;;1.52;1.20;;;28.50;34.00;;;;;;6243239;23;20088;-67
2022/09/03 13:15:29;;;;;;;2.17;1.10;;;28.60;33.90;;;;;;6243827;23;20015;-66
2022/09/03 13:18:08;;;;;;;1.60;1.02;;;28.80;33.80;;;;;;6244284;23;20695;-67